sensor_id;sensor_type;location;lat;lon;timestamp;P1;durP1;ratioP1;P2;durP2;ratioP2
77544;SDS011;66672;50.328;7.610;2023-06-19T00:00:10;8.32;;;6.13;;
77544;SDS011;66672;50.328;7.610;2023-06-19T00:02:42;7.65;;;6.13;;
77544;SDS011;66672;50.328;7.610;2023-06-19T00:05:07;8.60;;;6.30;;
77544;SDS011;66672;50.328;7.610;2023-06-19T00:07:36;8.13;;;6.30;;
77544;SDS011;66672;50.328;7.610;2023-06-19T00:10:01;9.93;;;6.30;;
77544;SDS011;66672;50.328;7.610;2023-06-19T00:12:26;8.10;;;6.60;;
77544;SDS011;66672;50.328;7.610;2023-06-19T00:14:51;7.60;;;6.20;;
77544;SDS011;66672;50.328;7.610;2023-06-19T00:17:17;8.37;;;5.60;;
77544;SDS011;66672;50.328;7.610;2023-06-19T00:19:42;7.53;;;6.28;;
77544;SDS011;66672;50.328;7.610;2023-06-19T00:22:07;10.10;;;6.25;;
77544;SDS011;66672;50.328;7.610;2023-06-19T00:24:33;8.82;;;6.55;;
77544;SDS011;66672;50.328;7.610;2023-06-19T00:26:58;7.88;;;6.30;;
77544;SDS011;66672;50.328;7.610;2023-06-19T00:29:28;7.80;;;6.18;;
77544;SDS011;66672;50.328;7.610;2023-06-19T00:31:53;9.52;;;6.50;;
77544;SDS011;66672;50.328;7.610;2023-06-19T00:34:18;8.90;;;7.07;;
77544;SDS011;66672;50.328;7.610;2023-06-19T00:36:44;9.18;;;7.40;;
77544;SDS011;66672;50.328;7.610;2023-06-19T00:39:09;8.63;;;6.40;;
77544;SDS011;66672;50.328;7.610;2023-06-19T00:41:35;7.63;;;6.70;;
77544;SDS011;66672;50.328;7.610;2023-06-19T00:44:00;8.60;;;6.28;;
77544;SDS011;66672;50.328;7.610;2023-06-19T00:46:25;8.75;;;6.45;;
77544;SDS011;66672;50.328;7.610;2023-06-19T00:48:51;7.53;;;6.13;;
77544;SDS011;66672;50.328;7.610;2023-06-19T00:51:16;9.23;;;6.45;;
77544;SDS011;66672;50.328;7.610;2023-06-19T00:53:41;10.40;;;6.80;;
77544;SDS011;66672;50.328;7.610;2023-06-19T00:56:06;9.15;;;6.63;;
77544;SDS011;66672;50.328;7.610;2023-06-19T00:58:31;7.10;;;5.82;;
77544;SDS011;66672;50.328;7.610;2023-06-19T01:00:57;7.50;;;6.05;;
77544;SDS011;66672;50.328;7.610;2023-06-19T01:03:23;8.93;;;6.75;;
77544;SDS011;66672;50.328;7.610;2023-06-19T01:05:48;8.13;;;6.80;;
77544;SDS011;66672;50.328;7.610;2023-06-19T01:08:24;8.93;;;6.15;;
77544;SDS011;66672;50.328;7.610;2023-06-19T01:10:54;8.57;;;6.38;;
77544;SDS011;66672;50.328;7.610;2023-06-19T01:13:41;9.23;;;6.50;;
77544;SDS011;66672;50.328;7.610;2023-06-19T01:16:09;8.10;;;6.03;;
77544;SDS011;66672;50.328;7.610;2023-06-19T01:18:35;7.85;;;6.75;;
77544;SDS011;66672;50.328;7.610;2023-06-19T01:21:11;8.45;;;7.18;;
77544;SDS011;66672;50.328;7.610;2023-06-19T01:23:36;9.40;;;6.60;;
77544;SDS011;66672;50.328;7.610;2023-06-19T01:26:01;8.90;;;6.40;;
77544;SDS011;66672;50.328;7.610;2023-06-19T01:28:27;9.27;;;6.30;;
77544;SDS011;66672;50.328;7.610;2023-06-19T01:30:52;7.30;;;5.80;;
77544;SDS011;66672;50.328;7.610;2023-06-19T01:33:20;10.52;;;6.85;;
77544;SDS011;66672;50.328;7.610;2023-06-19T01:35:46;9.55;;;7.50;;
77544;SDS011;66672;50.328;7.610;2023-06-19T01:38:12;8.45;;;6.55;;
77544;SDS011;66672;50.328;7.610;2023-06-19T01:40:37;8.43;;;7.03;;
77544;SDS011;66672;50.328;7.610;2023-06-19T01:43:03;10.00;;;6.80;;
77544;SDS011;66672;50.328;7.610;2023-06-19T01:45:29;8.52;;;6.72;;
77544;SDS011;66672;50.328;7.610;2023-06-19T01:47:55;8.95;;;6.72;;
77544;SDS011;66672;50.328;7.610;2023-06-19T01:50:23;7.82;;;6.50;;
77544;SDS011;66672;50.328;7.610;2023-06-19T01:52:49;8.38;;;6.45;;
77544;SDS011;66672;50.328;7.610;2023-06-19T01:55:14;9.20;;;6.82;;
77544;SDS011;66672;50.328;7.610;2023-06-19T01:57:40;8.45;;;6.90;;
77544;SDS011;66672;50.328;7.610;2023-06-19T02:00:05;8.50;;;6.93;;
77544;SDS011;66672;50.328;7.610;2023-06-19T02:02:32;9.90;;;6.93;;
77544;SDS011;66672;50.328;7.610;2023-06-19T02:04:57;8.75;;;6.88;;
77544;SDS011;66672;50.328;7.610;2023-06-19T02:07:23;9.07;;;7.13;;
77544;SDS011;66672;50.328;7.610;2023-06-19T02:09:48;8.67;;;7.00;;
77544;SDS011;66672;50.328;7.610;2023-06-19T02:12:13;8.17;;;6.50;;
77544;SDS011;66672;50.328;7.610;2023-06-19T02:14:38;9.00;;;7.45;;
77544;SDS011;66672;50.328;7.610;2023-06-19T02:17:04;9.43;;;7.27;;
77544;SDS011;66672;50.328;7.610;2023-06-19T02:19:29;10.32;;;7.22;;
77544;SDS011;66672;50.328;7.610;2023-06-19T02:21:54;11.43;;;6.63;;
77544;SDS011;66672;50.328;7.610;2023-06-19T02:24:19;10.60;;;7.22;;
77544;SDS011;66672;50.328;7.610;2023-06-19T02:26:45;10.13;;;7.53;;
77544;SDS011;66672;50.328;7.610;2023-06-19T02:29:10;9.18;;;7.20;;
77544;SDS011;66672;50.328;7.610;2023-06-19T02:31:35;9.77;;;7.45;;
77544;SDS011;66672;50.328;7.610;2023-06-19T02:34:00;8.60;;;6.63;;
77544;SDS011;66672;50.328;7.610;2023-06-19T02:36:26;10.35;;;7.28;;
77544;SDS011;66672;50.328;7.610;2023-06-19T02:38:51;9.60;;;7.40;;
77544;SDS011;66672;50.328;7.610;2023-06-19T02:41:16;9.15;;;6.97;;
77544;SDS011;66672;50.328;7.610;2023-06-19T02:43:43;10.05;;;7.35;;
77544;SDS011;66672;50.328;7.610;2023-06-19T02:46:09;8.45;;;6.88;;
77544;SDS011;66672;50.328;7.610;2023-06-19T02:48:34;9.43;;;7.03;;
77544;SDS011;66672;50.328;7.610;2023-06-19T02:50:59;11.45;;;6.80;;
77544;SDS011;66672;50.328;7.610;2023-06-19T02:53:25;8.90;;;7.40;;
77544;SDS011;66672;50.328;7.610;2023-06-19T02:55:50;8.60;;;7.07;;
77544;SDS011;66672;50.328;7.610;2023-06-19T02:58:15;8.30;;;6.60;;
77544;SDS011;66672;50.328;7.610;2023-06-19T03:00:40;8.95;;;7.45;;
77544;SDS011;66672;50.328;7.610;2023-06-19T03:03:05;9.95;;;7.25;;
77544;SDS011;66672;50.328;7.610;2023-06-19T03:05:31;8.30;;;6.97;;
77544;SDS011;66672;50.328;7.610;2023-06-19T03:07:56;8.88;;;7.38;;
77544;SDS011;66672;50.328;7.610;2023-06-19T03:10:21;10.17;;;7.07;;
77544;SDS011;66672;50.328;7.610;2023-06-19T03:12:46;10.18;;;7.35;;
77544;SDS011;66672;50.328;7.610;2023-06-19T03:15:11;10.10;;;7.97;;
77544;SDS011;66672;50.328;7.610;2023-06-19T03:17:37;8.90;;;7.60;;
77544;SDS011;66672;50.328;7.610;2023-06-19T03:20:02;9.80;;;7.68;;
77544;SDS011;66672;50.328;7.610;2023-06-19T03:22:27;8.85;;;7.05;;
77544;SDS011;66672;50.328;7.610;2023-06-19T03:24:52;11.15;;;9.20;;
77544;SDS011;66672;50.328;7.610;2023-06-19T03:27:18;12.05;;;8.90;;
77544;SDS011;66672;50.328;7.610;2023-06-19T03:29:43;10.68;;;8.18;;
77544;SDS011;66672;50.328;7.610;2023-06-19T03:32:08;11.83;;;7.47;;
77544;SDS011;66672;50.328;7.610;2023-06-19T03:34:33;10.68;;;8.38;;
77544;SDS011;66672;50.328;7.610;2023-06-19T03:36:58;9.27;;;6.28;;
77544;SDS011;66672;50.328;7.610;2023-06-19T03:39:24;8.27;;;6.22;;
77544;SDS011;66672;50.328;7.610;2023-06-19T03:41:49;7.20;;;5.90;;
77544;SDS011;66672;50.328;7.610;2023-06-19T03:44:14;7.72;;;5.45;;
77544;SDS011;66672;50.328;7.610;2023-06-19T03:46:40;6.78;;;5.75;;
77544;SDS011;66672;50.328;7.610;2023-06-19T03:49:05;9.13;;;6.57;;
77544;SDS011;66672;50.328;7.610;2023-06-19T03:51:31;7.53;;;5.45;;
77544;SDS011;66672;50.328;7.610;2023-06-19T03:53:57;7.72;;;6.25;;
77544;SDS011;66672;50.328;7.610;2023-06-19T03:56:22;7.73;;;5.37;;
77544;SDS011;66672;50.328;7.610;2023-06-19T03:58:47;7.57;;;5.65;;
77544;SDS011;66672;50.328;7.610;2023-06-19T04:01:12;8.20;;;6.00;;
77544;SDS011;66672;50.328;7.610;2023-06-19T04:03:37;7.32;;;5.45;;
77544;SDS011;66672;50.328;7.610;2023-06-19T04:06:03;9.10;;;5.07;;
77544;SDS011;66672;50.328;7.610;2023-06-19T04:08:28;8.52;;;5.30;;
77544;SDS011;66672;50.328;7.610;2023-06-19T04:10:53;7.28;;;5.07;;
77544;SDS011;66672;50.328;7.610;2023-06-19T04:13:18;7.07;;;5.20;;
77544;SDS011;66672;50.328;7.610;2023-06-19T04:15:44;7.03;;;4.50;;
77544;SDS011;66672;50.328;7.610;2023-06-19T04:18:09;9.32;;;5.00;;
77544;SDS011;66672;50.328;7.610;2023-06-19T04:20:34;6.38;;;4.90;;
77544;SDS011;66672;50.328;7.610;2023-06-19T04:23:00;7.57;;;4.85;;
77544;SDS011;66672;50.328;7.610;2023-06-19T04:25:25;6.77;;;4.93;;
77544;SDS011;66672;50.328;7.610;2023-06-19T04:27:51;8.07;;;5.25;;
77544;SDS011;66672;50.328;7.610;2023-06-19T04:30:16;9.20;;;5.05;;
77544;SDS011;66672;50.328;7.610;2023-06-19T04:32:41;7.18;;;4.93;;
77544;SDS011;66672;50.328;7.610;2023-06-19T04:35:07;6.38;;;4.85;;
77544;SDS011;66672;50.328;7.610;2023-06-19T04:37:32;6.82;;;4.88;;
77544;SDS011;66672;50.328;7.610;2023-06-19T04:39:57;7.50;;;4.93;;
77544;SDS011;66672;50.328;7.610;2023-06-19T04:42:22;7.20;;;4.63;;
77544;SDS011;66672;50.328;7.610;2023-06-19T04:44:48;7.68;;;4.97;;
77544;SDS011;66672;50.328;7.610;2023-06-19T04:47:13;8.13;;;4.97;;
77544;SDS011;66672;50.328;7.610;2023-06-19T04:49:39;6.40;;;4.50;;
77544;SDS011;66672;50.328;7.610;2023-06-19T04:52:04;11.37;;;4.07;;
77544;SDS011;66672;50.328;7.610;2023-06-19T04:54:29;9.25;;;4.95;;
77544;SDS011;66672;50.328;7.610;2023-06-19T04:56:57;6.72;;;4.22;;
77544;SDS011;66672;50.328;7.610;2023-06-19T04:59:22;7.00;;;5.00;;
77544;SDS011;66672;50.328;7.610;2023-06-19T05:01:47;7.37;;;4.53;;
77544;SDS011;66672;50.328;7.610;2023-06-19T05:04:13;6.55;;;4.35;;
77544;SDS011;66672;50.328;7.610;2023-06-19T05:06:38;7.45;;;4.72;;
77544;SDS011;66672;50.328;7.610;2023-06-19T05:09:03;9.40;;;4.70;;
77544;SDS011;66672;50.328;7.610;2023-06-19T05:11:29;6.22;;;4.13;;
77544;SDS011;66672;50.328;7.610;2023-06-19T05:13:55;7.72;;;4.70;;
77544;SDS011;66672;50.328;7.610;2023-06-19T05:16:20;7.47;;;5.05;;
77544;SDS011;66672;50.328;7.610;2023-06-19T05:18:47;7.68;;;4.53;;
77544;SDS011;66672;50.328;7.610;2023-06-19T05:21:13;6.90;;;4.47;;
77544;SDS011;66672;50.328;7.610;2023-06-19T05:23:39;6.15;;;4.22;;
77544;SDS011;66672;50.328;7.610;2023-06-19T05:26:04;7.28;;;4.82;;
77544;SDS011;66672;50.328;7.610;2023-06-19T05:28:29;6.72;;;4.47;;
77544;SDS011;66672;50.328;7.610;2023-06-19T05:30:55;8.43;;;4.63;;
77544;SDS011;66672;50.328;7.610;2023-06-19T05:33:20;8.73;;;4.53;;
77544;SDS011;66672;50.328;7.610;2023-06-19T05:35:45;6.47;;;4.32;;
77544;SDS011;66672;50.328;7.610;2023-06-19T05:38:16;6.28;;;4.10;;
77544;SDS011;66672;50.328;7.610;2023-06-19T05:40:41;6.25;;;4.63;;
77544;SDS011;66672;50.328;7.610;2023-06-19T05:43:06;6.37;;;4.20;;
77544;SDS011;66672;50.328;7.610;2023-06-19T05:45:31;6.87;;;4.47;;
77544;SDS011;66672;50.328;7.610;2023-06-19T05:47:57;6.97;;;4.50;;
77544;SDS011;66672;50.328;7.610;2023-06-19T05:50:22;7.10;;;4.77;;
77544;SDS011;66672;50.328;7.610;2023-06-19T05:52:47;7.32;;;4.53;;
77544;SDS011;66672;50.328;7.610;2023-06-19T05:55:12;6.10;;;4.25;;
77544;SDS011;66672;50.328;7.610;2023-06-19T05:57:37;7.00;;;4.45;;
77544;SDS011;66672;50.328;7.610;2023-06-19T06:00:03;5.70;;;4.00;;
77544;SDS011;66672;50.328;7.610;2023-06-19T06:02:28;7.13;;;4.18;;
77544;SDS011;66672;50.328;7.610;2023-06-19T06:04:54;7.25;;;4.78;;
77544;SDS011;66672;50.328;7.610;2023-06-19T06:07:21;7.43;;;4.63;;
77544;SDS011;66672;50.328;7.610;2023-06-19T06:09:46;7.17;;;4.70;;
77544;SDS011;66672;50.328;7.610;2023-06-19T06:12:11;8.50;;;4.78;;
77544;SDS011;66672;50.328;7.610;2023-06-19T06:14:36;6.47;;;4.60;;
77544;SDS011;66672;50.328;7.610;2023-06-19T06:17:02;7.97;;;4.68;;
77544;SDS011;66672;50.328;7.610;2023-06-19T06:19:29;5.78;;;4.50;;
77544;SDS011;66672;50.328;7.610;2023-06-19T06:21:54;6.97;;;4.82;;
77544;SDS011;66672;50.328;7.610;2023-06-19T06:24:19;10.32;;;5.57;;
77544;SDS011;66672;50.328;7.610;2023-06-19T06:26:44;6.63;;;4.75;;
77544;SDS011;66672;50.328;7.610;2023-06-19T06:29:10;7.20;;;4.90;;
77544;SDS011;66672;50.328;7.610;2023-06-19T06:31:37;8.40;;;4.18;;
77544;SDS011;66672;50.328;7.610;2023-06-19T06:34:03;7.43;;;4.70;;
77544;SDS011;66672;50.328;7.610;2023-06-19T06:36:29;6.75;;;4.75;;
77544;SDS011;66672;50.328;7.610;2023-06-19T06:38:54;7.13;;;4.25;;
77544;SDS011;66672;50.328;7.610;2023-06-19T06:41:19;6.45;;;4.50;;
77544;SDS011;66672;50.328;7.610;2023-06-19T06:43:44;6.78;;;4.47;;
77544;SDS011;66672;50.328;7.610;2023-06-19T06:46:09;7.10;;;4.38;;
77544;SDS011;66672;50.328;7.610;2023-06-19T06:48:39;8.73;;;4.05;;
77544;SDS011;66672;50.328;7.610;2023-06-19T06:51:04;7.18;;;4.70;;
77544;SDS011;66672;50.328;7.610;2023-06-19T06:53:30;6.63;;;4.57;;
77544;SDS011;66672;50.328;7.610;2023-06-19T06:55:57;7.88;;;4.65;;
77544;SDS011;66672;50.328;7.610;2023-06-19T06:58:22;6.63;;;4.22;;
77544;SDS011;66672;50.328;7.610;2023-06-19T07:00:47;6.40;;;4.30;;
77544;SDS011;66672;50.328;7.610;2023-06-19T07:03:12;6.57;;;4.35;;
77544;SDS011;66672;50.328;7.610;2023-06-19T07:05:38;5.95;;;3.95;;
77544;SDS011;66672;50.328;7.610;2023-06-19T07:08:03;7.13;;;4.60;;
77544;SDS011;66672;50.328;7.610;2023-06-19T07:10:29;7.47;;;3.70;;
77544;SDS011;66672;50.328;7.610;2023-06-19T07:12:54;6.50;;;3.83;;
77544;SDS011;66672;50.328;7.610;2023-06-19T07:15:19;6.60;;;4.00;;
77544;SDS011;66672;50.328;7.610;2023-06-19T07:17:45;8.03;;;4.27;;
77544;SDS011;66672;50.328;7.610;2023-06-19T07:20:10;7.20;;;4.38;;
77544;SDS011;66672;50.328;7.610;2023-06-19T07:22:35;7.63;;;4.18;;
77544;SDS011;66672;50.328;7.610;2023-06-19T07:25:01;6.25;;;4.20;;
77544;SDS011;66672;50.328;7.610;2023-06-19T07:27:26;8.27;;;4.13;;
77544;SDS011;66672;50.328;7.610;2023-06-19T07:29:52;6.60;;;4.10;;
77544;SDS011;66672;50.328;7.610;2023-06-19T07:32:17;5.68;;;3.97;;
77544;SDS011;66672;50.328;7.610;2023-06-19T07:34:43;7.57;;;4.18;;
77544;SDS011;66672;50.328;7.610;2023-06-19T07:37:08;6.27;;;4.20;;
77544;SDS011;66672;50.328;7.610;2023-06-19T07:39:33;7.32;;;4.43;;
77544;SDS011;66672;50.328;7.610;2023-06-19T07:41:58;8.70;;;4.30;;
77544;SDS011;66672;50.328;7.610;2023-06-19T07:44:23;7.28;;;4.13;;
77544;SDS011;66672;50.328;7.610;2023-06-19T07:46:48;5.47;;;3.58;;
77544;SDS011;66672;50.328;7.610;2023-06-19T07:49:14;6.97;;;3.95;;
77544;SDS011;66672;50.328;7.610;2023-06-19T07:51:39;6.53;;;3.67;;
77544;SDS011;66672;50.328;7.610;2023-06-19T07:54:04;5.93;;;3.63;;
77544;SDS011;66672;50.328;7.610;2023-06-19T07:56:29;5.80;;;3.83;;
77544;SDS011;66672;50.328;7.610;2023-06-19T07:58:54;5.65;;;3.80;;
77544;SDS011;66672;50.328;7.610;2023-06-19T08:01:20;5.07;;;3.33;;
77544;SDS011;66672;50.328;7.610;2023-06-19T08:03:45;7.50;;;3.63;;
77544;SDS011;66672;50.328;7.610;2023-06-19T08:06:10;6.18;;;3.33;;
77544;SDS011;66672;50.328;7.610;2023-06-19T08:08:35;5.32;;;2.92;;
77544;SDS011;66672;50.328;7.610;2023-06-19T08:11:00;5.57;;;3.00;;
77544;SDS011;66672;50.328;7.610;2023-06-19T08:13:26;6.07;;;3.45;;
77544;SDS011;66672;50.328;7.610;2023-06-19T08:15:51;6.07;;;3.70;;
77544;SDS011;66672;50.328;7.610;2023-06-19T08:18:16;4.35;;;3.10;;
77544;SDS011;66672;50.328;7.610;2023-06-19T08:20:42;6.50;;;3.47;;
77544;SDS011;66672;50.328;7.610;2023-06-19T08:23:07;6.10;;;3.85;;
77544;SDS011;66672;50.328;7.610;2023-06-19T08:25:32;5.20;;;3.33;;
77544;SDS011;66672;50.328;7.610;2023-06-19T08:27:58;5.53;;;3.13;;
77544;SDS011;66672;50.328;7.610;2023-06-19T08:30:23;4.97;;;2.93;;
77544;SDS011;66672;50.328;7.610;2023-06-19T08:32:48;5.97;;;2.83;;
77544;SDS011;66672;50.328;7.610;2023-06-19T08:35:14;5.38;;;3.30;;
77544;SDS011;66672;50.328;7.610;2023-06-19T08:37:40;5.53;;;3.00;;
77544;SDS011;66672;50.328;7.610;2023-06-19T08:40:05;5.05;;;2.90;;
77544;SDS011;66672;50.328;7.610;2023-06-19T08:42:34;5.80;;;2.92;;
77544;SDS011;66672;50.328;7.610;2023-06-19T08:44:59;6.75;;;3.30;;
77544;SDS011;66672;50.328;7.610;2023-06-19T08:47:28;5.22;;;2.90;;
77544;SDS011;66672;50.328;7.610;2023-06-19T08:49:54;6.32;;;3.05;;
77544;SDS011;66672;50.328;7.610;2023-06-19T08:52:19;3.80;;;2.37;;
77544;SDS011;66672;50.328;7.610;2023-06-19T08:54:44;5.63;;;2.70;;
77544;SDS011;66672;50.328;7.610;2023-06-19T08:57:10;5.10;;;2.85;;
77544;SDS011;66672;50.328;7.610;2023-06-19T08:59:36;5.45;;;2.88;;
77544;SDS011;66672;50.328;7.610;2023-06-19T09:02:01;5.68;;;3.05;;
77544;SDS011;66672;50.328;7.610;2023-06-19T09:04:27;4.88;;;3.17;;
77544;SDS011;66672;50.328;7.610;2023-06-19T09:06:56;6.30;;;2.95;;
77544;SDS011;66672;50.328;7.610;2023-06-19T09:09:23;4.53;;;2.80;;
77544;SDS011;66672;50.328;7.610;2023-06-19T09:14:36;4.60;;;3.03;;
77544;SDS011;66672;50.328;7.610;2023-06-19T09:17:02;7.93;;;3.10;;
77544;SDS011;66672;50.328;7.610;2023-06-19T09:19:28;6.72;;;3.38;;
77544;SDS011;66672;50.328;7.610;2023-06-19T09:21:53;4.18;;;2.20;;
77544;SDS011;66672;50.328;7.610;2023-06-19T09:24:18;4.35;;;2.80;;
77544;SDS011;66672;50.328;7.610;2023-06-19T09:26:43;4.65;;;2.63;;
77544;SDS011;66672;50.328;7.610;2023-06-19T09:29:14;6.03;;;2.60;;
77544;SDS011;66672;50.328;7.610;2023-06-19T09:31:44;4.50;;;2.70;;
77544;SDS011;66672;50.328;7.610;2023-06-19T09:34:09;4.32;;;2.58;;
77544;SDS011;66672;50.328;7.610;2023-06-19T09:36:34;6.18;;;3.00;;
77544;SDS011;66672;50.328;7.610;2023-06-19T09:39:00;5.45;;;2.65;;
77544;SDS011;66672;50.328;7.610;2023-06-19T09:41:26;4.43;;;2.72;;
77544;SDS011;66672;50.328;7.610;2023-06-19T09:43:54;4.75;;;2.78;;
77544;SDS011;66672;50.328;7.610;2023-06-19T09:46:22;4.53;;;2.60;;
77544;SDS011;66672;50.328;7.610;2023-06-19T09:48:48;4.28;;;2.75;;
77544;SDS011;66672;50.328;7.610;2023-06-19T09:51:20;6.88;;;2.50;;
77544;SDS011;66672;50.328;7.610;2023-06-19T09:53:47;5.63;;;2.80;;
77544;SDS011;66672;50.328;7.610;2023-06-19T09:56:13;5.25;;;2.85;;
77544;SDS011;66672;50.328;7.610;2023-06-19T09:58:39;4.15;;;2.70;;
77544;SDS011;66672;50.328;7.610;2023-06-19T10:01:04;4.55;;;2.70;;
77544;SDS011;66672;50.328;7.610;2023-06-19T10:03:31;6.07;;;2.80;;
77544;SDS011;66672;50.328;7.610;2023-06-19T10:06:02;4.68;;;2.70;;
77544;SDS011;66672;50.328;7.610;2023-06-19T10:08:29;5.97;;;3.00;;
77544;SDS011;66672;50.328;7.610;2023-06-19T10:10:55;4.93;;;2.63;;
77544;SDS011;66672;50.328;7.610;2023-06-19T10:13:20;5.10;;;2.67;;
77544;SDS011;66672;50.328;7.610;2023-06-19T10:15:46;5.85;;;3.08;;
77544;SDS011;66672;50.328;7.610;2023-06-19T10:18:15;4.20;;;2.30;;
77544;SDS011;66672;50.328;7.610;2023-06-19T10:20:41;5.88;;;2.60;;
77544;SDS011;66672;50.328;7.610;2023-06-19T10:23:22;4.07;;;2.30;;
77544;SDS011;66672;50.328;7.610;2023-06-19T10:25:54;5.68;;;2.55;;
77544;SDS011;66672;50.328;7.610;2023-06-19T10:28:21;4.75;;;2.70;;
77544;SDS011;66672;50.328;7.610;2023-06-19T10:30:53;5.22;;;2.75;;
77544;SDS011;66672;50.328;7.610;2023-06-19T10:33:19;4.50;;;2.50;;
77544;SDS011;66672;50.328;7.610;2023-06-19T10:35:44;4.05;;;2.63;;
77544;SDS011;66672;50.328;7.610;2023-06-19T10:38:09;4.87;;;2.50;;
77544;SDS011;66672;50.328;7.610;2023-06-19T10:40:37;5.63;;;2.95;;
77544;SDS011;66672;50.328;7.610;2023-06-19T10:43:03;4.15;;;2.50;;
77544;SDS011;66672;50.328;7.610;2023-06-19T10:45:29;5.15;;;2.75;;
77544;SDS011;66672;50.328;7.610;2023-06-19T10:47:54;5.20;;;2.67;;
77544;SDS011;66672;50.328;7.610;2023-06-19T10:50:20;4.38;;;2.63;;
77544;SDS011;66672;50.328;7.610;2023-06-19T10:52:45;5.35;;;2.80;;
77544;SDS011;66672;50.328;7.610;2023-06-19T10:55:14;4.47;;;2.75;;
77544;SDS011;66672;50.328;7.610;2023-06-19T10:57:40;3.78;;;2.35;;
77544;SDS011;66672;50.328;7.610;2023-06-19T11:00:06;4.70;;;2.03;;
77544;SDS011;66672;50.328;7.610;2023-06-19T11:02:36;5.35;;;2.50;;
77544;SDS011;66672;50.328;7.610;2023-06-19T11:05:02;5.45;;;2.30;;
77544;SDS011;66672;50.328;7.610;2023-06-19T11:07:28;3.65;;;2.20;;
77544;SDS011;66672;50.328;7.610;2023-06-19T11:09:53;3.80;;;2.30;;
77544;SDS011;66672;50.328;7.610;2023-06-19T11:12:19;4.03;;;2.25;;
77544;SDS011;66672;50.328;7.610;2023-06-19T11:14:44;6.38;;;2.55;;
77544;SDS011;66672;50.328;7.610;2023-06-19T11:17:10;5.63;;;2.50;;
77544;SDS011;66672;50.328;7.610;2023-06-19T11:19:35;4.45;;;2.13;;
77544;SDS011;66672;50.328;7.610;2023-06-19T11:22:03;4.80;;;2.17;;
77544;SDS011;66672;50.328;7.610;2023-06-19T11:24:28;4.43;;;2.25;;
77544;SDS011;66672;50.328;7.610;2023-06-19T11:26:55;4.28;;;2.70;;
77544;SDS011;66672;50.328;7.610;2023-06-19T11:29:21;4.20;;;2.40;;
77544;SDS011;66672;50.328;7.610;2023-06-19T11:31:47;4.40;;;2.40;;
77544;SDS011;66672;50.328;7.610;2023-06-19T11:34:12;4.32;;;2.65;;
77544;SDS011;66672;50.328;7.610;2023-06-19T11:36:38;4.75;;;2.40;;
77544;SDS011;66672;50.328;7.610;2023-06-19T11:39:03;4.45;;;2.10;;
77544;SDS011;66672;50.328;7.610;2023-06-19T11:41:30;4.25;;;2.20;;
77544;SDS011;66672;50.328;7.610;2023-06-19T11:43:59;3.33;;;2.20;;
77544;SDS011;66672;50.328;7.610;2023-06-19T11:46:28;4.55;;;2.45;;
77544;SDS011;66672;50.328;7.610;2023-06-19T11:48:53;4.68;;;2.20;;
77544;SDS011;66672;50.328;7.610;2023-06-19T11:51:18;5.15;;;2.55;;
77544;SDS011;66672;50.328;7.610;2023-06-19T11:53:43;4.68;;;2.80;;
77544;SDS011;66672;50.328;7.610;2023-06-19T11:56:09;3.17;;;2.20;;
77544;SDS011;66672;50.328;7.610;2023-06-19T11:58:34;3.47;;;1.80;;
77544;SDS011;66672;50.328;7.610;2023-06-19T12:00:59;4.70;;;2.58;;
77544;SDS011;66672;50.328;7.610;2023-06-19T12:03:24;4.43;;;2.23;;
77544;SDS011;66672;50.328;7.610;2023-06-19T12:05:49;3.58;;;2.08;;
77544;SDS011;66672;50.328;7.610;2023-06-19T12:08:15;4.20;;;2.50;;
77544;SDS011;66672;50.328;7.610;2023-06-19T12:10:41;3.40;;;2.05;;
77544;SDS011;66672;50.328;7.610;2023-06-19T12:13:06;4.30;;;2.33;;
77544;SDS011;66672;50.328;7.610;2023-06-19T12:15:31;3.75;;;2.35;;
77544;SDS011;66672;50.328;7.610;2023-06-19T12:17:57;3.80;;;2.30;;
77544;SDS011;66672;50.328;7.610;2023-06-19T12:20:23;5.32;;;2.30;;
77544;SDS011;66672;50.328;7.610;2023-06-19T12:22:49;5.28;;;2.60;;
77544;SDS011;66672;50.328;7.610;2023-06-19T12:25:14;5.15;;;2.40;;
77544;SDS011;66672;50.328;7.610;2023-06-19T12:27:39;5.32;;;2.20;;
77544;SDS011;66672;50.328;7.610;2023-06-19T12:30:05;3.60;;;2.08;;
77544;SDS011;66672;50.328;7.610;2023-06-19T12:32:31;4.07;;;2.35;;
77544;SDS011;66672;50.328;7.610;2023-06-19T12:34:56;6.03;;;2.43;;
77544;SDS011;66672;50.328;7.610;2023-06-19T12:37:21;3.70;;;2.25;;
77544;SDS011;66672;50.328;7.610;2023-06-19T12:39:47;4.38;;;2.30;;
77544;SDS011;66672;50.328;7.610;2023-06-19T12:42:12;4.07;;;2.08;;
77544;SDS011;66672;50.328;7.610;2023-06-19T12:44:40;6.20;;;2.42;;
77544;SDS011;66672;50.328;7.610;2023-06-19T12:47:06;3.30;;;1.80;;
77544;SDS011;66672;50.328;7.610;2023-06-19T12:49:31;4.00;;;2.00;;
77544;SDS011;66672;50.328;7.610;2023-06-19T12:51:57;3.60;;;2.25;;
77544;SDS011;66672;50.328;7.610;2023-06-19T12:54:22;5.30;;;2.05;;
77544;SDS011;66672;50.328;7.610;2023-06-19T12:56:48;3.10;;;1.70;;
77544;SDS011;66672;50.328;7.610;2023-06-19T12:59:13;3.97;;;1.90;;
77544;SDS011;66672;50.328;7.610;2023-06-19T13:01:38;4.22;;;2.08;;
77544;SDS011;66672;50.328;7.610;2023-06-19T13:04:03;5.83;;;2.37;;
77544;SDS011;66672;50.328;7.610;2023-06-19T13:06:28;4.10;;;2.10;;
77544;SDS011;66672;50.328;7.610;2023-06-19T13:08:54;4.27;;;2.10;;
77544;SDS011;66672;50.328;7.610;2023-06-19T13:11:19;3.08;;;1.95;;
77544;SDS011;66672;50.328;7.610;2023-06-19T13:13:44;3.33;;;1.90;;
77544;SDS011;66672;50.328;7.610;2023-06-19T13:16:09;4.32;;;2.10;;
77544;SDS011;66672;50.328;7.610;2023-06-19T13:18:35;3.20;;;2.00;;
77544;SDS011;66672;50.328;7.610;2023-06-19T13:21:00;3.88;;;2.20;;
77544;SDS011;66672;50.328;7.610;2023-06-19T13:23:25;3.83;;;2.10;;
77544;SDS011;66672;50.328;7.610;2023-06-19T13:25:50;4.60;;;2.27;;
77544;SDS011;66672;50.328;7.610;2023-06-19T13:28:15;3.67;;;1.93;;
77544;SDS011;66672;50.328;7.610;2023-06-19T13:30:41;4.32;;;1.92;;
77544;SDS011;66672;50.328;7.610;2023-06-19T13:33:06;4.73;;;2.27;;
77544;SDS011;66672;50.328;7.610;2023-06-19T13:35:31;4.03;;;1.92;;
77544;SDS011;66672;50.328;7.610;2023-06-19T13:37:56;3.47;;;1.63;;
77544;SDS011;66672;50.328;7.610;2023-06-19T13:40:21;4.40;;;2.30;;
77544;SDS011;66672;50.328;7.610;2023-06-19T13:42:47;3.77;;;2.00;;
77544;SDS011;66672;50.328;7.610;2023-06-19T13:45:12;3.25;;;2.08;;
77544;SDS011;66672;50.328;7.610;2023-06-19T13:47:38;3.70;;;2.10;;
77544;SDS011;66672;50.328;7.610;2023-06-19T13:50:03;4.10;;;2.20;;
77544;SDS011;66672;50.328;7.610;2023-06-19T13:52:28;2.95;;;1.65;;
77544;SDS011;66672;50.328;7.610;2023-06-19T13:54:53;3.33;;;2.20;;
77544;SDS011;66672;50.328;7.610;2023-06-19T13:57:19;4.47;;;2.03;;
77544;SDS011;66672;50.328;7.610;2023-06-19T13:59:44;3.47;;;1.97;;
77544;SDS011;66672;50.328;7.610;2023-06-19T14:02:09;3.30;;;2.17;;
77544;SDS011;66672;50.328;7.610;2023-06-19T14:04:35;4.30;;;2.17;;
77544;SDS011;66672;50.328;7.610;2023-06-19T14:07:00;4.75;;;2.20;;
77544;SDS011;66672;50.328;7.610;2023-06-19T14:09:25;5.32;;;2.50;;
77544;SDS011;66672;50.328;7.610;2023-06-19T14:11:51;3.45;;;2.13;;
77544;SDS011;66672;50.328;7.610;2023-06-19T14:14:16;5.13;;;2.23;;
77544;SDS011;66672;50.328;7.610;2023-06-19T14:16:41;3.93;;;1.97;;
77544;SDS011;66672;50.328;7.610;2023-06-19T14:19:06;3.73;;;2.07;;
77544;SDS011;66672;50.328;7.610;2023-06-19T14:21:31;4.18;;;2.08;;
77544;SDS011;66672;50.328;7.610;2023-06-19T14:23:57;5.22;;;2.47;;
77544;SDS011;66672;50.328;7.610;2023-06-19T14:26:22;3.58;;;2.05;;
77544;SDS011;66672;50.328;7.610;2023-06-19T14:28:47;3.60;;;1.88;;
77544;SDS011;66672;50.328;7.610;2023-06-19T14:31:13;3.58;;;1.75;;
77544;SDS011;66672;50.328;7.610;2023-06-19T14:33:38;5.07;;;2.42;;
77544;SDS011;66672;50.328;7.610;2023-06-19T14:36:03;4.50;;;2.40;;
77544;SDS011;66672;50.328;7.610;2023-06-19T14:38:29;3.70;;;2.17;;
77544;SDS011;66672;50.328;7.610;2023-06-19T14:40:58;4.22;;;1.98;;